aviador You're here:

CYTE Decoded Metar

CAPE DORSET in NU, CANADA
Report Time2018-01-19 10:00:00
UTC Time2018-01-19 11:03:47
Flight Rules vfr VFR
Wind110° at 03 kt
W.Decomp.*RWY 13: 3.0 kt HW 0.4 kt RCW
W.Rank110° ranks 10
Current wind is below 110° avg. (10.4)
Visibility9999 m
Phenomena:N/A
Clouds:Overcast 050 Hf
Expected CloudBase > 1,200 ft AGL from Temp-Dew spread
Ceiling5,000 ft
Temp-25°C (ISA -40)
Dew Point-28°C (76% RH)
AAT-29.9°C
QNH1011 hPa
Density Alt-4,915 ft
Elevation154 ft
Report Wrong Elevation
Raw Report
CYTE 191000Z AUTO 11003KT 9SM OVC050 M25/M28 A2985 RMK SLP117=

Extra information for CYTE:More info

Metar Taf Metar & Taf Last 4 Metars F.Rules Stats Wind Profile Meteogram Temp Stats Airport Information Weather charts Add Link Nearby VenuesMetar ALERT Operation Metar Decoded Social comments